createdAt,value
2022-10-19T00:09:55.108Z,100704.44
2022-10-19T00:24:58.075Z,100688.50
2022-10-19T00:40:00.239Z,100660.06
2022-10-19T00:55:02.921Z,100630.25
2022-10-19T01:10:05.324Z,100625.28
2022-10-19T01:25:29.771Z,100597.13
2022-10-19T01:40:53.751Z,100565.22
2022-10-19T01:55:57.203Z,100549.78
2022-10-19T02:11:00.153Z,100558.78
2022-10-19T02:26:02.320Z,100554.44
2022-10-19T02:41:18.650Z,100536.50
2022-10-19T02:56:20.589Z,100527.22
2022-10-19T03:11:22.497Z,100524.75
2022-10-19T03:26:24.364Z,100500.72
2022-10-19T03:41:28.592Z,100474.56
2022-10-19T03:56:32.262Z,100454.28
2022-10-19T04:11:35.278Z,100428.41
2022-10-19T04:26:43.228Z,100420.13
2022-10-19T04:41:45.108Z,100415.38
2022-10-19T04:56:47.171Z,100392.16
2022-10-19T05:11:51.890Z,100385.50
2022-10-19T05:26:53.789Z,100359.97
2022-10-19T05:41:55.748Z,100349.84
2022-10-19T05:56:57.970Z,100339.78
2022-10-19T06:11:59.838Z,100299.25
2022-10-19T06:27:01.721Z,100280.75
2022-10-19T06:42:03.661Z,100266.56
2022-10-19T06:57:05.729Z,100254.22
2022-10-19T07:12:10.840Z,100238.00
2022-10-19T07:27:13.880Z,100220.63
2022-10-19T07:42:15.931Z,100210.63
2022-10-19T07:57:18.272Z,100184.13
2022-10-19T08:12:20.146Z,100157.53
2022-10-19T08:27:22.226Z,100140.09
2022-10-19T08:42:33.158Z,100124.09
2022-10-19T08:57:41.257Z,100087.81
2022-10-19T09:12:53.886Z,100066.75
2022-10-19T09:28:11.539Z,100028.72
2022-10-19T09:43:22.459Z,99997.94
2022-10-19T09:58:30.488Z,99992.69
2022-10-19T10:13:43.760Z,99956.13
2022-10-19T10:28:50.811Z,99961.09
2022-10-19T10:44:04.749Z,99935.78
2022-10-19T10:59:16.022Z,99928.28
2022-10-19T11:14:42.860Z,99901.91
2022-10-19T11:30:10.762Z,99864.25
2022-10-19T11:45:47.450Z,99853.53
2022-10-19T12:01:13.395Z,99850.81
2022-10-19T12:16:17.560Z,99842.13
2022-10-19T12:31:19.861Z,99813.63
2022-10-19T12:46:51.723Z,99798.66
2022-10-19T13:02:00.907Z,99775.31
2022-10-19T13:17:04.194Z,99771.81
2022-10-19T13:32:40.604Z,99737.66
2022-10-19T13:47:48.983Z,99721.28
2022-10-19T14:03:38.485Z,99710.47
2022-10-19T14:18:42.280Z,99697.84
2022-10-19T14:33:48.129Z,99675.16
2022-10-19T14:48:51.214Z,99668.25
2022-10-19T15:03:53.689Z,99663.66
2022-10-19T15:18:55.724Z,99665.03
2022-10-19T15:34:00.694Z,99659.47
2022-10-19T15:49:25.068Z,99659.59
2022-10-19T16:04:27.110Z,99666.81
2022-10-19T16:19:28.959Z,99652.41
2022-10-19T16:34:30.977Z,99664.25
2022-10-19T16:49:32.968Z,99673.97
2022-10-19T17:04:35.114Z,99672.47
2022-10-19T17:19:37.526Z,99673.47
2022-10-19T17:34:39.434Z,99669.13
2022-10-19T17:49:41.397Z,99674.59
2022-10-19T18:04:43.368Z,99693.34
2022-10-19T18:49:56.957Z,99709.53
2022-10-19T19:04:58.931Z,99714.78
2022-10-19T19:20:00.744Z,99714.69
2022-10-19T19:35:02.569Z,99723.56
2022-10-19T19:50:04.630Z,99719.34
2022-10-19T20:05:07.507Z,99715.69
2022-10-19T20:20:11.078Z,99727.53
2022-10-19T20:35:12.896Z,99703.38
2022-10-19T20:50:16.099Z,99705.06
2022-10-19T21:05:20.012Z,99689.28
2022-10-19T21:20:24.765Z,99694.72
2022-10-19T21:35:26.639Z,99669.69
2022-10-19T21:50:28.443Z,99678.34
2022-10-19T22:05:30.358Z,99669.81
2022-10-19T22:20:33.880Z,99669.56
2022-10-19T22:35:35.666Z,99683.22
2022-10-19T22:51:15.139Z,99690.66
2022-10-19T23:06:18.640Z,99696.88
2022-10-19T23:21:20.453Z,99677.16
2022-10-19T23:36:25.302Z,99655.31
2022-10-19T23:51:27.527Z,99651.66
